sensor_id;sensor_type;location;lat;lon;timestamp;pressure;altitude;pressure_sealevel;temperature;humidity
6942;BME280;3510;43.200;27.920;2023-07-31T00:09:34;100404.34;;;30.09;48.77
6942;BME280;3510;43.200;27.920;2023-07-31T00:12:03;100403.47;;;30.10;49.08
6942;BME280;3510;43.200;27.920;2023-07-31T00:14:44;100407.00;;;29.79;49.69
6942;BME280;3510;43.200;27.920;2023-07-31T00:17:24;100408.72;;;29.64;50.44
6942;BME280;3510;43.200;27.920;2023-07-31T00:19:51;100415.63;;;29.65;50.33
6942;BME280;3510;43.200;27.920;2023-07-31T00:22:32;100420.78;;;29.42;50.53
6942;BME280;3510;43.200;27.920;2023-07-31T00:25:14;100421.69;;;29.72;50.24
6942;BME280;3510;43.200;27.920;2023-07-31T00:27:42;100420.78;;;29.50;50.77
6942;BME280;3510;43.200;27.920;2023-07-31T00:30:22;100416.44;;;29.12;51.76
6942;BME280;3510;43.200;27.920;2023-07-31T00:33:02;100433.69;;;29.10;51.89
6942;BME280;3510;43.200;27.920;2023-07-31T00:35:33;100416.47;;;29.40;51.71
6942;BME280;3510;43.200;27.920;2023-07-31T00:38:13;100416.47;;;29.37;52.03
6942;BME280;3510;43.200;27.920;2023-07-31T00:43:28;100419.06;;;29.18;52.67
6942;BME280;3510;43.200;27.920;2023-07-31T00:45:57;100416.47;;;29.18;52.49
6942;BME280;3510;43.200;27.920;2023-07-31T00:48:37;100415.56;;;29.26;52.50
6942;BME280;3510;43.200;27.920;2023-07-31T00:51:19;100412.09;;;29.01;53.53
6942;BME280;3510;43.200;27.920;2023-07-31T00:53:59;100429.38;;;29.05;53.26
6942;BME280;3510;43.200;27.920;2023-07-31T00:56:40;100424.13;;;28.92;54.18
6942;BME280;3510;43.200;27.920;2023-07-31T00:59:15;100423.97;;;28.48;54.84
6942;BME280;3510;43.200;27.920;2023-07-31T01:01:44;100416.16;;;28.37;55.01
6942;BME280;3510;43.200;27.920;2023-07-31T01:04:26;100421.31;;;28.39;55.30
6942;BME280;3510;43.200;27.920;2023-07-31T01:07:08;100427.47;;;28.61;54.60
6942;BME280;3510;43.200;27.920;2023-07-31T01:09:53;100404.00;;;28.32;55.39
6942;BME280;3510;43.200;27.920;2023-07-31T01:12:32;100412.53;;;28.15;56.18
6942;BME280;3510;43.200;27.920;2023-07-31T01:18:03;100414.41;;;27.28;59.55
6942;BME280;3510;43.200;27.920;2023-07-31T01:20:41;100416.44;;;27.60;58.48
6942;BME280;3510;43.200;27.920;2023-07-31T01:23:22;100419.09;;;27.73;57.99
6942;BME280;3510;43.200;27.920;2023-07-31T01:28:50;100415.91;;;28.02;57.29
6942;BME280;3510;43.200;27.920;2023-07-31T01:31:22;100418.78;;;27.35;59.41
6942;BME280;3510;43.200;27.920;2023-07-31T01:34:12;100420.59;;;27.44;58.83
6942;BME280;3510;43.200;27.920;2023-07-31T01:36:54;100425.59;;;27.25;59.04
6942;BME280;3510;43.200;27.920;2023-07-31T01:39:35;100437.41;;;27.05;59.73
6942;BME280;3510;43.200;27.920;2023-07-31T01:42:16;100443.66;;;27.24;58.98
6942;BME280;3510;43.200;27.920;2023-07-31T02:17:04;100441.53;;;26.91;59.76
6942;BME280;3510;43.200;27.920;2023-07-31T02:19:32;100441.91;;;26.50;60.26
6942;BME280;3510;43.200;27.920;2023-07-31T02:22:00;100442.19;;;26.71;59.44
6942;BME280;3510;43.200;27.920;2023-07-31T02:24:40;100445.72;;;26.79;59.04
6942;BME280;3510;43.200;27.920;2023-07-31T02:27:07;100444.25;;;27.03;58.75
6942;BME280;3510;43.200;27.920;2023-07-31T02:29:34;100439.81;;;26.91;58.68
6942;BME280;3510;43.200;27.920;2023-07-31T02:32:01;100437.03;;;27.50;56.64
6942;BME280;3510;43.200;27.920;2023-07-31T02:37:43;100433.16;;;28.00;55.28
6942;BME280;3510;43.200;27.920;2023-07-31T02:40:10;100441.16;;;28.37;54.49
6942;BME280;3510;43.200;27.920;2023-07-31T02:42:36;100444.50;;;28.19;54.35
6942;BME280;3510;43.200;27.920;2023-07-31T02:45:03;100451.28;;;28.06;54.37
6942;BME280;3510;43.200;27.920;2023-07-31T02:47:29;100448.16;;;28.53;53.75
6942;BME280;3510;43.200;27.920;2023-07-31T02:49:55;100435.22;;;28.53;53.83
6942;BME280;3510;43.200;27.920;2023-07-31T02:52:22;100428.91;;;28.13;54.35
6942;BME280;3510;43.200;27.920;2023-07-31T02:54:56;100432.00;;;27.69;55.75
6942;BME280;3510;43.200;27.920;2023-07-31T02:57:22;100448.47;;;27.76;55.57
6942;BME280;3510;43.200;27.920;2023-07-31T02:59:49;100444.22;;;27.82;55.59
6942;BME280;3510;43.200;27.920;2023-07-31T03:02:15;100442.44;;;27.75;55.49
6942;BME280;3510;43.200;27.920;2023-07-31T03:04:42;100450.56;;;27.22;57.14
6942;BME280;3510;43.200;27.920;2023-07-31T03:07:08;100447.22;;;27.35;56.68
6942;BME280;3510;43.200;27.920;2023-07-31T03:09:35;100447.53;;;27.69;56.17
6942;BME280;3510;43.200;27.920;2023-07-31T03:12:03;100450.59;;;27.26;56.89
6942;BME280;3510;43.200;27.920;2023-07-31T03:14:29;100453.31;;;27.42;56.58
6942;BME280;3510;43.200;27.920;2023-07-31T03:16:56;100453.53;;;27.63;56.07
6942;BME280;3510;43.200;27.920;2023-07-31T03:19:23;100457.25;;;27.93;55.37
6942;BME280;3510;43.200;27.920;2023-07-31T03:21:49;100457.28;;;27.99;54.94
6942;BME280;3510;43.200;27.920;2023-07-31T03:24:15;100458.00;;;27.78;55.50
6942;BME280;3510;43.200;27.920;2023-07-31T03:26:42;100453.72;;;27.82;55.38
6942;BME280;3510;43.200;27.920;2023-07-31T03:29:09;100460.81;;;28.10;54.63
6942;BME280;3510;43.200;27.920;2023-07-31T03:31:37;100460.09;;;28.33;54.19
6942;BME280;3510;43.200;27.920;2023-07-31T03:34:03;100451.53;;;28.40;53.52
6942;BME280;3510;43.200;27.920;2023-07-31T03:36:43;100448.19;;;28.61;53.36
6942;BME280;3510;43.200;27.920;2023-07-31T03:39:10;100457.09;;;29.41;51.81
6942;BME280;3510;43.200;27.920;2023-07-31T03:41:37;100454.44;;;29.07;52.03
6942;BME280;3510;43.200;27.920;2023-07-31T03:44:03;100448.91;;;28.34;54.41
6942;BME280;3510;43.200;27.920;2023-07-31T03:46:31;100450.59;;;28.32;54.53
6942;BME280;3510;43.200;27.920;2023-07-31T03:48:58;100455.84;;;28.38;54.46
6942;BME280;3510;43.200;27.920;2023-07-31T03:51:25;100453.97;;;28.18;55.23
6942;BME280;3510;43.200;27.920;2023-07-31T03:53:51;100459.97;;;28.14;55.38
6942;BME280;3510;43.200;27.920;2023-07-31T03:56:18;100462.63;;;28.23;55.54
6942;BME280;3510;43.200;27.920;2023-07-31T03:58:44;100461.69;;;28.14;55.92
6942;BME280;3510;43.200;27.920;2023-07-31T04:01:11;100459.22;;;28.31;55.47
6942;BME280;3510;43.200;27.920;2023-07-31T04:03:38;100455.63;;;28.10;55.83
6942;BME280;3510;43.200;27.920;2023-07-31T04:06:05;100467.94;;;28.42;55.65
6942;BME280;3510;43.200;27.920;2023-07-31T04:08:32;100447.97;;;28.27;55.98
6942;BME280;3510;43.200;27.920;2023-07-31T04:10:58;100450.63;;;28.35;55.63
6942;BME280;3510;43.200;27.920;2023-07-31T04:13:25;100454.03;;;28.26;55.87
6942;BME280;3510;43.200;27.920;2023-07-31T04:16:06;100465.47;;;28.63;55.15
6942;BME280;3510;43.200;27.920;2023-07-31T05:40:30;100509.97;;;32.05;45.48
6942;BME280;3510;43.200;27.920;2023-07-31T05:43:12;100516.41;;;31.51;45.97
6942;BME280;3510;43.200;27.920;2023-07-31T05:45:52;100511.00;;;31.80;45.41
6942;BME280;3510;43.200;27.920;2023-07-31T05:48:32;100513.53;;;31.94;44.95
6942;BME280;3510;43.200;27.920;2023-07-31T05:51:13;100515.69;;;32.40;44.12
6942;BME280;3510;43.200;27.920;2023-07-31T05:53:53;100512.72;;;32.76;42.82
6942;BME280;3510;43.200;27.920;2023-07-31T05:56:21;100511.06;;;32.69;42.87
6942;BME280;3510;43.200;27.920;2023-07-31T05:59:01;100513.38;;;32.97;42.33
6942;BME280;3510;43.200;27.920;2023-07-31T06:01:42;100511.91;;;33.39;41.65
6942;BME280;3510;43.200;27.920;2023-07-31T06:04:22;100513.97;;;33.19;41.56
6942;BME280;3510;43.200;27.920;2023-07-31T06:07:03;100518.91;;;33.36;40.92
6942;BME280;3510;43.200;27.920;2023-07-31T06:09:43;100515.22;;;33.54;40.73
6942;BME280;3510;43.200;27.920;2023-07-31T06:12:25;100511.38;;;32.39;43.35
6942;BME280;3510;43.200;27.920;2023-07-31T06:14:51;100513.44;;;32.08;43.80
6942;BME280;3510;43.200;27.920;2023-07-31T06:17:32;100512.13;;;33.22;41.80
6942;BME280;3510;43.200;27.920;2023-07-31T06:19:58;100520.25;;;33.66;40.91
6942;BME280;3510;43.200;27.920;2023-07-31T06:22:25;100521.56;;;33.34;40.83
6942;BME280;3510;43.200;27.920;2023-07-31T06:25:05;100526.47;;;33.56;40.03
6942;BME280;3510;43.200;27.920;2023-07-31T06:41:55;100536.31;;;32.63;39.35
6942;BME280;3510;43.200;27.920;2023-07-31T06:44:21;100534.00;;;32.32;40.75
6942;BME280;3510;43.200;27.920;2023-07-31T06:46:48;100528.84;;;32.27;40.94
6942;BME280;3510;43.200;27.920;2023-07-31T06:49:14;100530.38;;;32.51;40.36
6942;BME280;3510;43.200;27.920;2023-07-31T06:51:41;100533.69;;;32.66;39.95
6942;BME280;3510;43.200;27.920;2023-07-31T06:54:12;100530.13;;;32.74;39.85
6942;BME280;3510;43.200;27.920;2023-07-31T06:56:38;100527.28;;;32.97;39.71
6942;BME280;3510;43.200;27.920;2023-07-31T06:59:06;100539.31;;;32.24;41.09
6942;BME280;3510;43.200;27.920;2023-07-31T07:01:33;100532.66;;;32.81;40.37
6942;BME280;3510;43.200;27.920;2023-07-31T07:04:00;100537.97;;;33.42;39.30
6942;BME280;3510;43.200;27.920;2023-07-31T07:06:30;100530.78;;;32.95;40.07
6942;BME280;3510;43.200;27.920;2023-07-31T07:09:10;100529.50;;;33.27;39.38
6942;BME280;3510;43.200;27.920;2023-07-31T07:14:30;100534.56;;;32.68;39.59
6942;BME280;3510;43.200;27.920;2023-07-31T07:17:05;100531.00;;;34.02;37.98
6942;BME280;3510;43.200;27.920;2023-07-31T07:19:31;100535.78;;;33.75;38.24
6942;BME280;3510;43.200;27.920;2023-07-31T07:21:58;100537.66;;;33.65;38.14
6942;BME280;3510;43.200;27.920;2023-07-31T07:24:27;100533.34;;;34.17;37.53
6942;BME280;3510;43.200;27.920;2023-07-31T07:26:54;100534.09;;;33.71;38.19
6942;BME280;3510;43.200;27.920;2023-07-31T07:29:21;100503.06;;;34.55;36.25
6942;BME280;3510;43.200;27.920;2023-07-31T07:31:58;100508.50;;;34.42;36.50
6942;BME280;3510;43.200;27.920;2023-07-31T07:34:25;100496.47;;;34.79;35.70
6942;BME280;3510;43.200;27.920;2023-07-31T07:36:52;100524.88;;;35.76;34.88
6942;BME280;3510;43.200;27.920;2023-07-31T07:39:19;100500.34;;;35.79;34.43
6942;BME280;3510;43.200;27.920;2023-07-31T07:41:53;100537.28;;;35.68;34.56
6942;BME280;3510;43.200;27.920;2023-07-31T07:44:19;100508.66;;;36.30;34.31
6942;BME280;3510;43.200;27.920;2023-07-31T07:46:49;100529.00;;;36.85;33.31
6942;BME280;3510;43.200;27.920;2023-07-31T07:49:17;100530.44;;;36.32;33.83
6942;BME280;3510;43.200;27.920;2023-07-31T07:51:44;100529.63;;;35.59;34.21
6942;BME280;3510;43.200;27.920;2023-07-31T07:54:11;100503.38;;;35.98;34.53
6942;BME280;3510;43.200;27.920;2023-07-31T07:56:50;100527.84;;;36.64;34.10
6942;BME280;3510;43.200;27.920;2023-07-31T07:59:16;100501.94;;;35.86;34.26
6942;BME280;3510;43.200;27.920;2023-07-31T08:01:43;100443.16;;;35.25;34.82
6942;BME280;3510;43.200;27.920;2023-07-31T08:04:10;100483.75;;;35.78;34.37
6942;BME280;3510;43.200;27.920;2023-07-31T08:06:38;100481.34;;;36.38;33.91
6942;BME280;3510;43.200;27.920;2023-07-31T08:09:05;100530.66;;;37.18;33.39
6942;BME280;3510;43.200;27.920;2023-07-31T08:11:33;100520.31;;;38.21;31.98
6942;BME280;3510;43.200;27.920;2023-07-31T08:14:00;100535.41;;;37.35;32.17
6942;BME280;3510;43.200;27.920;2023-07-31T08:16:27;100529.13;;;36.16;33.55
6942;BME280;3510;43.200;27.920;2023-07-31T08:18:53;100485.78;;;34.46;35.92
6942;BME280;3510;43.200;27.920;2023-07-31T08:21:21;100525.78;;;34.95;35.55
6942;BME280;3510;43.200;27.920;2023-07-31T08:23:49;100421.81;;;34.20;35.81
6942;BME280;3510;43.200;27.920;2023-07-31T08:26:16;100507.22;;;35.08;35.04
6942;BME280;3510;43.200;27.920;2023-07-31T08:28:44;100510.84;;;36.13;34.11
6942;BME280;3510;43.200;27.920;2023-07-31T08:31:11;100524.88;;;36.12;33.66
6942;BME280;3510;43.200;27.920;2023-07-31T08:33:40;100519.94;;;36.65;32.68
6942;BME280;3510;43.200;27.920;2023-07-31T08:36:07;100493.97;;;36.86;32.17
6942;BME280;3510;43.200;27.920;2023-07-31T08:38:34;100543.53;;;37.56;33.60
6942;BME280;3510;43.200;27.920;2023-07-31T08:41:03;100515.38;;;37.03;35.44
6942;BME280;3510;43.200;27.920;2023-07-31T08:43:30;100540.56;;;37.38;34.46
6942;BME280;3510;43.200;27.920;2023-07-31T08:45:59;100498.28;;;35.92;36.34
6942;BME280;3510;43.200;27.920;2023-07-31T08:48:28;100478.69;;;35.72;37.32
6942;BME280;3510;43.200;27.920;2023-07-31T08:50:57;100474.75;;;36.23;36.24
6942;BME280;3510;43.200;27.920;2023-07-31T08:53:38;100532.50;;;37.71;33.62
6942;BME280;3510;43.200;27.920;2023-07-31T08:56:07;100551.47;;;37.54;34.49
6942;BME280;3510;43.200;27.920;2023-07-31T08:58:35;100548.75;;;37.57;33.23
6942;BME280;3510;43.200;27.920;2023-07-31T09:01:04;100537.72;;;35.50;36.58
6942;BME280;3510;43.200;27.920;2023-07-31T09:03:33;100532.25;;;35.95;36.02
6942;BME280;3510;43.200;27.920;2023-07-31T09:06:02;100541.88;;;36.94;34.62
6942;BME280;3510;43.200;27.920;2023-07-31T09:08:31;100544.06;;;36.78;35.29
6942;BME280;3510;43.200;27.920;2023-07-31T09:11:00;100538.06;;;36.09;35.42
6942;BME280;3510;43.200;27.920;2023-07-31T09:13:30;100555.34;;;36.16;35.66
6942;BME280;3510;43.200;27.920;2023-07-31T09:15:57;100551.94;;;36.78;34.38
6942;BME280;3510;43.200;27.920;2023-07-31T09:18:24;100554.81;;;37.00;33.91
6942;BME280;3510;43.200;27.920;2023-07-31T09:21:05;100558.81;;;37.13;33.78
6942;BME280;3510;43.200;27.920;2023-07-31T09:23:41;100554.16;;;36.92;34.29
6942;BME280;3510;43.200;27.920;2023-07-31T09:26:08;100558.75;;;36.54;35.44
6942;BME280;3510;43.200;27.920;2023-07-31T09:28:36;100563.59;;;36.33;36.34
6942;BME280;3510;43.200;27.920;2023-07-31T09:31:03;100570.44;;;35.69;37.54
6942;BME280;3510;43.200;27.920;2023-07-31T09:33:30;100517.97;;;36.08;36.56
6942;BME280;3510;43.200;27.920;2023-07-31T09:35:59;100562.63;;;36.72;36.09
6942;BME280;3510;43.200;27.920;2023-07-31T09:38:27;100526.75;;;36.72;34.11
6942;BME280;3510;43.200;27.920;2023-07-31T09:40:54;100565.63;;;37.19;33.63
6942;BME280;3510;43.200;27.920;2023-07-31T09:43:21;100561.75;;;37.60;33.14
6942;BME280;3510;43.200;27.920;2023-07-31T09:45:55;100490.19;;;36.66;33.38
6942;BME280;3510;43.200;27.920;2023-07-31T09:48:24;100550.19;;;37.38;32.34
6942;BME280;3510;43.200;27.920;2023-07-31T09:50:53;100554.25;;;37.49;32.18
6942;BME280;3510;43.200;27.920;2023-07-31T09:53:27;100566.59;;;37.74;31.04
6942;BME280;3510;43.200;27.920;2023-07-31T09:55:58;100561.59;;;37.37;31.96
6942;BME280;3510;43.200;27.920;2023-07-31T09:58:28;100544.59;;;36.89;31.29
6942;BME280;3510;43.200;27.920;2023-07-31T10:00:58;100554.84;;;35.65;32.64
6942;BME280;3510;43.200;27.920;2023-07-31T10:03:25;100555.53;;;34.89;33.67
6942;BME280;3510;43.200;27.920;2023-07-31T10:05:53;100494.84;;;34.73;33.91
6942;BME280;3510;43.200;27.920;2023-07-31T10:08:26;100538.28;;;34.80;34.05
6942;BME280;3510;43.200;27.920;2023-07-31T10:10:55;100557.97;;;35.01;32.77
6942;BME280;3510;43.200;27.920;2023-07-31T10:13:25;100523.66;;;35.13;32.78
6942;BME280;3510;43.200;27.920;2023-07-31T10:15:54;100521.75;;;34.78;33.37
6942;BME280;3510;43.200;27.920;2023-07-31T10:18:26;100552.91;;;34.44;34.47
6942;BME280;3510;43.200;27.920;2023-07-31T10:20:55;100521.34;;;34.07;34.65
6942;BME280;3510;43.200;27.920;2023-07-31T10:23:22;100554.88;;;34.31;34.50
6942;BME280;3510;43.200;27.920;2023-07-31T10:25:51;100512.69;;;34.03;35.15
6942;BME280;3510;43.200;27.920;2023-07-31T10:28:20;100552.41;;;34.22;35.10
6942;BME280;3510;43.200;27.920;2023-07-31T10:30:47;100530.56;;;34.26;35.17
6942;BME280;3510;43.200;27.920;2023-07-31T10:33:15;100525.47;;;34.20;34.98
6942;BME280;3510;43.200;27.920;2023-07-31T10:35:44;100546.47;;;34.14;35.24
6942;BME280;3510;43.200;27.920;2023-07-31T10:38:13;100537.81;;;34.10;35.07
6942;BME280;3510;43.200;27.920;2023-07-31T10:40:40;100552.16;;;35.27;33.84
6942;BME280;3510;43.200;27.920;2023-07-31T10:43:07;100499.38;;;33.64;35.73
6942;BME280;3510;43.200;27.920;2023-07-31T10:45:37;100542.28;;;33.46;36.55
6942;BME280;3510;43.200;27.920;2023-07-31T10:48:06;100538.41;;;34.28;35.92
6942;BME280;3510;43.200;27.920;2023-07-31T10:50:37;100552.00;;;34.91;34.40
6942;BME280;3510;43.200;27.920;2023-07-31T10:53:05;100559.63;;;34.09;34.83
6942;BME280;3510;43.200;27.920;2023-07-31T10:55:38;100543.47;;;34.35;35.10
6942;BME280;3510;43.200;27.920;2023-07-31T10:58:07;100504.19;;;34.85;34.65
6942;BME280;3510;43.200;27.920;2023-07-31T11:00:37;100560.53;;;34.07;35.52
6942;BME280;3510;43.200;27.920;2023-07-31T11:03:05;100558.22;;;33.85;36.60
6942;BME280;3510;43.200;27.920;2023-07-31T11:05:44;100511.63;;;33.61;36.17
6942;BME280;3510;43.200;27.920;2023-07-31T11:08:15;100522.28;;;34.03;35.57
6942;BME280;3510;43.200;27.920;2023-07-31T11:10:43;100554.66;;;33.91;35.69
6942;BME280;3510;43.200;27.920;2023-07-31T11:13:10;100535.13;;;33.61;36.22
6942;BME280;3510;43.200;27.920;2023-07-31T11:15:37;100538.13;;;33.90;35.68
6942;BME280;3510;43.200;27.920;2023-07-31T11:18:05;100494.91;;;33.11;36.58
6942;BME280;3510;43.200;27.920;2023-07-31T11:20:35;100488.94;;;33.64;36.23
6942;BME280;3510;43.200;27.920;2023-07-31T11:23:03;100429.84;;;34.10;34.87
6942;BME280;3510;43.200;27.920;2023-07-31T11:25:35;100514.94;;;34.71;34.87
6942;BME280;3510;43.200;27.920;2023-07-31T11:28:03;100524.06;;;34.94;34.59
6942;BME280;3510;43.200;27.920;2023-07-31T11:30:30;100520.34;;;33.58;36.60
6942;BME280;3510;43.200;27.920;2023-07-31T11:32:57;100515.50;;;33.91;36.13
6942;BME280;3510;43.200;27.920;2023-07-31T11:35:24;100473.88;;;34.31;35.73
6942;BME280;3510;43.200;27.920;2023-07-31T11:37:50;100501.34;;;34.54;35.35
6942;BME280;3510;43.200;27.920;2023-07-31T11:40:18;100480.38;;;34.09;35.67
6942;BME280;3510;43.200;27.920;2023-07-31T11:42:46;100509.78;;;35.86;33.11
6942;BME280;3510;43.200;27.920;2023-07-31T11:45:13;100494.88;;;33.74;36.31
6942;BME280;3510;43.200;27.920;2023-07-31T11:47:40;100475.81;;;34.20;35.24
6942;BME280;3510;43.200;27.920;2023-07-31T11:50:10;100494.78;;;34.31;35.55
6942;BME280;3510;43.200;27.920;2023-07-31T11:52:42;100491.34;;;34.28;35.93
6942;BME280;3510;43.200;27.920;2023-07-31T11:55:10;100444.25;;;33.81;36.00
6942;BME280;3510;43.200;27.920;2023-07-31T11:57:39;100496.53;;;34.31;35.75
6942;BME280;3510;43.200;27.920;2023-07-31T12:00:09;100493.13;;;34.26;36.11
6942;BME280;3510;43.200;27.920;2023-07-31T12:02:38;100504.41;;;33.77;37.21
6942;BME280;3510;43.200;27.920;2023-07-31T12:05:06;100514.06;;;34.23;36.57
6942;BME280;3510;43.200;27.920;2023-07-31T12:07:47;100516.31;;;33.93;36.97
6942;BME280;3510;43.200;27.920;2023-07-31T12:10:28;100515.53;;;33.89;37.33
6942;BME280;3510;43.200;27.920;2023-07-31T12:12:59;100465.00;;;33.33;37.91
6942;BME280;3510;43.200;27.920;2023-07-31T12:15:32;100514.72;;;33.27;38.71
6942;BME280;3510;43.200;27.920;2023-07-31T12:17:59;100503.41;;;32.54;40.26
6942;BME280;3510;43.200;27.920;2023-07-31T12:20:26;100491.06;;;32.70;39.72
6942;BME280;3510;43.200;27.920;2023-07-31T12:22:56;100457.25;;;33.30;39.07
6942;BME280;3510;43.200;27.920;2023-07-31T12:25:26;100469.91;;;32.97;40.66
6942;BME280;3510;43.200;27.920;2023-07-31T12:27:54;100496.28;;;32.70;42.19
6942;BME280;3510;43.200;27.920;2023-07-31T12:30:28;100486.31;;;32.27;44.25
6942;BME280;3510;43.200;27.920;2023-07-31T12:32:56;100496.69;;;33.09;43.59
6942;BME280;3510;43.200;27.920;2023-07-31T12:35:23;100489.97;;;32.89;44.58
6942;BME280;3510;43.200;27.920;2023-07-31T12:37:49;100490.06;;;32.80;44.49
6942;BME280;3510;43.200;27.920;2023-07-31T12:40:16;100486.78;;;31.72;46.35
6942;BME280;3510;43.200;27.920;2023-07-31T12:42:42;100480.44;;;32.05;45.96
6942;BME280;3510;43.200;27.920;2023-07-31T12:45:09;100478.91;;;31.86;47.06
6942;BME280;3510;43.200;27.920;2023-07-31T12:47:35;100478.38;;;32.42;45.97
6942;BME280;3510;43.200;27.920;2023-07-31T12:50:03;100479.84;;;33.30;44.23
6942;BME280;3510;43.200;27.920;2023-07-31T12:52:29;100472.16;;;34.30;42.00
6942;BME280;3510;43.200;27.920;2023-07-31T12:54:56;100476.91;;;34.07;41.99
6942;BME280;3510;43.200;27.920;2023-07-31T12:57:22;100475.25;;;34.51;41.22
6942;BME280;3510;43.200;27.920;2023-07-31T12:59:49;100478.38;;;33.70;41.03
6942;BME280;3510;43.200;27.920;2023-07-31T13:02:16;100411.44;;;33.68;40.09
6942;BME280;3510;43.200;27.920;2023-07-31T13:04:42;100462.84;;;33.63;39.75
6942;BME280;3510;43.200;27.920;2023-07-31T13:07:10;100474.16;;;34.14;38.95
6942;BME280;3510;43.200;27.920;2023-07-31T13:09:37;100475.41;;;33.36;40.24
6942;BME280;3510;43.200;27.920;2023-07-31T13:12:17;100447.22;;;33.61;38.90
6942;BME280;3510;43.200;27.920;2023-07-31T13:14:45;100463.72;;;33.05;40.40
6942;BME280;3510;43.200;27.920;2023-07-31T13:17:25;100461.28;;;32.89;41.04
6942;BME280;3510;43.200;27.920;2023-07-31T13:19:52;100454.06;;;33.67;39.72
6942;BME280;3510;43.200;27.920;2023-07-31T13:22:20;100456.03;;;34.07;37.65
6942;BME280;3510;43.200;27.920;2023-07-31T13:24:47;100456.06;;;34.49;37.01
6942;BME280;3510;43.200;27.920;2023-07-31T13:27:14;100455.25;;;33.49;38.97
6942;BME280;3510;43.200;27.920;2023-07-31T13:29:42;100453.88;;;33.79;38.28
6942;BME280;3510;43.200;27.920;2023-07-31T13:32:09;100438.44;;;33.65;38.03
6942;BME280;3510;43.200;27.920;2023-07-31T13:34:35;100445.47;;;33.05;38.95
6942;BME280;3510;43.200;27.920;2023-07-31T13:37:02;100469.75;;;33.07;38.97
6942;BME280;3510;43.200;27.920;2023-07-31T13:39:34;100436.56;;;32.50;39.69
6942;BME280;3510;43.200;27.920;2023-07-31T13:42:02;100378.34;;;32.52;39.32
6942;BME280;3510;43.200;27.920;2023-07-31T13:44:29;100477.66;;;33.02;39.28
6942;BME280;3510;43.200;27.920;2023-07-31T13:46:55;100473.66;;;33.38;38.10
6942;BME280;3510;43.200;27.920;2023-07-31T13:49:22;100474.53;;;33.37;39.36
6942;BME280;3510;43.200;27.920;2023-07-31T13:51:49;100467.28;;;33.58;38.54
6942;BME280;3510;43.200;27.920;2023-07-31T13:54:15;100469.38;;;32.66;39.06
6942;BME280;3510;43.200;27.920;2023-07-31T13:56:44;100478.63;;;33.55;38.41
6942;BME280;3510;43.200;27.920;2023-07-31T13:59:11;100467.06;;;33.13;38.59
6942;BME280;3510;43.200;27.920;2023-07-31T14:01:38;100493.31;;;33.02;39.15
6942;BME280;3510;43.200;27.920;2023-07-31T14:04:05;100480.72;;;32.64;40.03
6942;BME280;3510;43.200;27.920;2023-07-31T14:06:32;100492.22;;;31.41;41.26
6942;BME280;3510;43.200;27.920;2023-07-31T14:08:58;100490.31;;;32.59;39.71
6942;BME280;3510;43.200;27.920;2023-07-31T14:11:25;100494.63;;;32.63;39.25
6942;BME280;3510;43.200;27.920;2023-07-31T14:13:55;100483.28;;;32.68;39.38
6942;BME280;3510;43.200;27.920;2023-07-31T14:16:22;100479.72;;;32.75;39.64
6942;BME280;3510;43.200;27.920;2023-07-31T14:18:49;100495.59;;;33.25;38.77
6942;BME280;3510;43.200;27.920;2023-07-31T14:21:15;100493.69;;;32.67;39.73
6942;BME280;3510;43.200;27.920;2023-07-31T14:23:44;100492.19;;;33.20;38.99
6942;BME280;3510;43.200;27.920;2023-07-31T14:26:11;100457.16;;;33.36;38.55
6942;BME280;3510;43.200;27.920;2023-07-31T14:28:38;100475.72;;;33.75;37.63
6942;BME280;3510;43.200;27.920;2023-07-31T14:31:06;100467.31;;;34.09;37.89
6942;BME280;3510;43.200;27.920;2023-07-31T14:33:34;100489.38;;;35.63;35.41
6942;BME280;3510;43.200;27.920;2023-07-31T14:36:01;100487.63;;;36.93;32.62
6942;BME280;3510;43.200;27.920;2023-07-31T14:38:28;100460.56;;;36.30;32.91
6942;BME280;3510;43.200;27.920;2023-07-31T14:40:56;100472.09;;;37.16;32.11
6942;BME280;3510;43.200;27.920;2023-07-31T14:43:22;100482.16;;;36.71;33.76
6942;BME280;3510;43.200;27.920;2023-07-31T14:45:49;100461.88;;;36.46;32.71
6942;BME280;3510;43.200;27.920;2023-07-31T14:48:18;100448.91;;;35.39;34.52
6942;BME280;3510;43.200;27.920;2023-07-31T14:50:46;100486.41;;;35.02;36.55
6942;BME280;3510;43.200;27.920;2023-07-31T14:53:13;100478.38;;;34.23;38.16
6942;BME280;3510;43.200;27.920;2023-07-31T14:55:39;100469.59;;;34.72;37.79
6942;BME280;3510;43.200;27.920;2023-07-31T14:58:06;100440.75;;;34.75;37.26
6942;BME280;3510;43.200;27.920;2023-07-31T15:00:33;100475.22;;;34.06;38.41
6942;BME280;3510;43.200;27.920;2023-07-31T15:02:59;100483.13;;;34.91;37.01
6942;BME280;3510;43.200;27.920;2023-07-31T15:05:27;100449.03;;;34.09;38.27
6942;BME280;3510;43.200;27.920;2023-07-31T15:07:54;100429.59;;;33.20;38.72
6942;BME280;3510;43.200;27.920;2023-07-31T15:10:21;100461.03;;;34.19;37.73
6942;BME280;3510;43.200;27.920;2023-07-31T15:12:48;100461.22;;;33.57;39.19
6942;BME280;3510;43.200;27.920;2023-07-31T15:15:15;100457.22;;;34.35;38.14
6942;BME280;3510;43.200;27.920;2023-07-31T15:17:43;100405.44;;;34.11;38.47
6942;BME280;3510;43.200;27.920;2023-07-31T15:20:10;100416.16;;;33.95;38.78
6942;BME280;3510;43.200;27.920;2023-07-31T15:22:39;100444.72;;;34.53;37.60
6942;BME280;3510;43.200;27.920;2023-07-31T15:25:07;100402.19;;;33.96;38.09
6942;BME280;3510;43.200;27.920;2023-07-31T15:27:37;100413.28;;;34.11;38.17
6942;BME280;3510;43.200;27.920;2023-07-31T15:30:08;100450.84;;;33.53;39.13
6942;BME280;3510;43.200;27.920;2023-07-31T15:32:37;100453.59;;;33.42;39.88
6942;BME280;3510;43.200;27.920;2023-07-31T15:35:04;100444.13;;;33.89;38.34
6942;BME280;3510;43.200;27.920;2023-07-31T15:37:31;100450.63;;;34.16;38.46
6942;BME280;3510;43.200;27.920;2023-07-31T15:39:59;100456.06;;;34.04;38.17
6942;BME280;3510;43.200;27.920;2023-07-31T15:42:26;100459.47;;;33.58;38.59
6942;BME280;3510;43.200;27.920;2023-07-31T15:44:52;100462.22;;;32.84;40.48